Time;durP1;ratioP1;P1;durP2;ratioP2;P2;SDS_P1;SDS_P2;PMS_P1;PMS_P2;Temp;Humidity;BMP_temperature;BMP_pressure;BME280_temperature;BME280_humidity;BME280_pressure;Samples;Min_cycle;Max_cycle;Signal;HPM_P1;HPM_P2
2023/08/18 00:04:59;;;;;;;5.50;5.00;;;26.30;65.80;;;;;;222078;1255;22549;-53
2023/08/18 00:10:03;;;;;;;5.90;5.40;;;26.30;66.20;;;;;;221969;1269;24337;-50
2023/08/18 00:15:07;;;;;;;6.80;5.10;;;26.20;65.70;;;;;;221939;1264;24212;-48
2023/08/18 00:20:10;;;;;;;5.60;5.00;;;26.20;65.80;;;;;;222006;1267;22523;-48
2023/08/18 00:25:14;;;;;;;5.80;5.30;;;26.30;65.80;;;;;;222138;1259;24900;-51
2023/08/18 00:30:18;;;;;;;6.20;4.80;;;26.40;65.50;;;;;;222045;1263;25341;-49
2023/08/18 00:35:21;;;;;;;7.70;5.10;;;26.40;65.80;;;;;;221935;1263;24239;-52
2023/08/18 00:40:25;;;;;;;5.30;4.70;;;26.30;65.90;;;;;;222182;1248;22747;-47
2023/08/18 00:45:28;;;;;;;5.60;5.10;;;26.30;65.90;;;;;;222115;1263;22534;-51
2023/08/18 00:50:31;;;;;;;5.90;5.20;;;26.30;66.10;;;;;;222249;1256;22544;-49
2023/08/18 00:55:37;;;;;;;5.60;5.00;;;26.30;66.00;;;;;;221917;1255;22544;-49
2023/08/18 01:00:41;;;;;;;5.30;4.90;;;26.30;65.90;;;;;;221905;1266;23915;-49
2023/08/18 01:05:44;;;;;;;5.50;4.60;;;26.40;65.70;;;;;;222145;1264;22824;-49
2023/08/18 01:11:11;;;;;;;5.80;5.20;;;26.30;65.80;;;;;;221759;1263;24250;-50
2023/08/18 01:16:21;;;;;;;4.80;4.40;;;26.40;65.80;;;;;;222117;1256;25307;-50
2023/08/18 01:21:25;;;;;;;5.20;4.80;;;26.30;65.60;;;;;;221916;1264;22525;-50
2023/08/18 01:26:28;;;;;;;5.70;5.10;;;26.30;65.50;;;;;;222183;1255;24203;-48
2023/08/18 01:31:33;;;;;;;5.00;4.50;;;26.30;65.40;;;;;;222171;1263;23185;-49
2023/08/18 01:36:41;;;;;;;5.10;4.80;;;26.30;65.40;;;;;;221770;1255;22513;-50
2023/08/18 01:41:45;;;;;;;7.40;4.80;;;26.30;65.20;;;;;;222036;1263;22524;-49
2023/08/18 01:46:47;;;;;;;4.90;4.60;;;26.30;65.40;;;;;;222036;1263;23155;-52
2023/08/18 01:51:50;;;;;;;5.80;5.30;;;26.30;65.60;;;;;;222892;1265;22940;-48
2023/08/18 01:56:54;;;;;;;5.20;4.80;;;26.30;65.50;;;;;;223360;1256;22553;-48
2023/08/18 02:02:00;;;;;;;5.40;4.90;;;26.30;65.40;;;;;;221907;1266;23912;-52
2023/08/18 02:07:03;;;;;;;5.40;4.90;;;26.30;65.70;;;;;;221929;1263;22517;-51
2023/08/18 02:12:06;;;;;;;5.90;4.90;;;26.30;65.70;;;;;;222022;1265;22535;-49
2023/08/18 02:17:09;;;;;;;5.60;5.10;;;26.20;65.90;;;;;;221853;1264;22542;-49
2023/08/18 02:22:12;;;;;;;5.60;5.10;;;26.10;65.50;;;;;;221807;1260;24338;-50
2023/08/18 02:27:15;;;;;;;5.60;4.90;;;26.20;65.80;;;;;;221885;1263;24201;-50
2023/08/18 02:32:19;;;;;;;4.90;4.60;;;26.20;65.50;;;;;;221892;1259;28382;-51
2023/08/18 02:37:22;;;;;;;6.70;4.90;;;26.20;65.60;;;;;;222045;1256;22520;-49
2023/08/18 02:42:25;;;;;;;5.60;4.80;;;26.10;65.70;;;;;;222050;1264;24194;-48
2023/08/18 02:47:28;;;;;;;4.80;4.40;;;26.10;64.90;;;;;;222133;1255;22523;-49
2023/08/18 02:52:31;;;;;;;4.90;4.40;;;26.10;65.20;;;;;;221889;1263;22523;-50
2023/08/18 02:57:34;;;;;;;5.90;3.90;;;26.20;65.40;;;;;;221934;1264;25486;-48
2023/08/18 03:02:37;;;;;;;7.00;4.30;;;26.10;65.00;;;;;;222044;1266;22679;-49
2023/08/18 03:07:40;;;;;;;5.20;4.70;;;26.10;65.00;;;;;;222142;1266;22559;-49
2023/08/18 03:12:43;;;;;;;5.40;4.80;;;26.10;65.00;;;;;;221700;1263;22706;-52
2023/08/18 03:17:46;;;;;;;5.60;4.40;;;26.10;64.30;;;;;;221956;1269;22521;-50
2023/08/18 03:22:52;;;;;;;7.50;5.00;;;26.10;64.30;;;;;;221813;1265;177450;-47
2023/08/18 03:27:55;;;;;;;4.50;4.20;;;26.00;64.50;;;;;;221819;1263;22660;-51
2023/08/18 03:32:59;;;;;;;4.90;4.30;;;25.90;64.60;;;;;;222086;1265;24392;-46
2023/08/18 03:38:03;;;;;;;6.80;4.90;;;25.90;64.60;;;;;;221752;1268;26455;-49
2023/08/18 03:43:07;;;;;;;5.50;5.00;;;26.00;64.60;;;;;;221864;1256;25289;-50
2023/08/18 03:48:10;;;;;;;5.20;4.20;;;26.00;64.40;;;;;;223419;1255;26094;-49
2023/08/18 03:53:14;;;;;;;6.90;4.60;;;26.10;64.30;;;;;;222546;1264;25464;-49
2023/08/18 03:58:17;;;;;;;5.20;4.70;;;26.10;64.40;;;;;;221659;1264;22662;-52
2023/08/18 04:03:21;;;;;;;5.30;4.80;;;26.10;64.50;;;;;;221892;1264;22529;-49
2023/08/18 04:08:25;;;;;;;5.50;5.00;;;26.00;64.60;;;;;;221860;1260;24209;-50
2023/08/18 04:13:28;;;;;;;5.70;4.90;;;26.00;64.50;;;;;;221711;1264;22661;-51
2023/08/18 04:18:31;;;;;;;5.30;4.70;;;26.00;64.70;;;;;;221806;1255;22704;-48
2023/08/18 04:23:34;;;;;;;8.80;5.30;;;26.00;65.20;;;;;;221684;1270;23001;-49
2023/08/18 04:28:40;;;;;;;6.50;5.00;;;26.00;65.10;;;;;;221686;1259;22518;-52
2023/08/18 04:33:43;;;;;;;5.30;4.80;;;25.90;65.00;;;;;;221740;1265;22547;-52
2023/08/18 04:38:46;;;;;;;5.10;4.40;;;26.00;64.80;;;;;;221751;1268;22694;-49
2023/08/18 04:43:55;;;;;;;5.40;4.70;;;26.00;64.00;;;;;;221861;1255;22695;-51
2023/08/18 04:49:00;;;;;;;5.20;4.70;;;26.00;63.90;;;;;;221694;1265;22985;-48
2023/08/18 04:54:04;;;;;;;6.80;4.80;;;26.00;64.40;;;;;;221599;1254;22771;-48
2023/08/18 04:59:07;;;;;;;6.60;5.10;;;25.90;64.20;;;;;;221836;1270;22537;-50
2023/08/18 05:04:10;;;;;;;5.50;5.00;;;25.90;64.20;;;;;;221942;1264;22516;-49
2023/08/18 05:09:14;;;;;;;5.60;5.10;;;25.90;65.10;;;;;;221703;1266;24682;-49
2023/08/18 05:14:16;;;;;;;5.60;5.10;;;25.90;64.80;;;;;;221730;1267;22522;-51
2023/08/18 05:19:19;;;;;;;8.10;5.60;;;25.80;65.00;;;;;;221514;1256;22522;-52
2023/08/18 05:24:22;;;;;;;6.50;5.90;;;25.80;65.10;;;;;;221962;1262;22521;-52
2023/08/18 05:29:25;;;;;;;7.50;5.80;;;25.80;65.00;;;;;;221721;1259;24387;-52
2023/08/18 05:34:27;;;;;;;5.70;5.20;;;25.90;65.10;;;;;;221680;1271;24082;-49
2023/08/18 05:39:33;;;;;;;6.10;5.50;;;25.90;65.20;;;;;;221790;1259;24278;-49
2023/08/18 05:44:36;;;;;;;6.10;5.60;;;25.80;66.10;;;;;;221746;1271;22640;-52
2023/08/18 05:49:39;;;;;;;7.00;6.20;;;25.80;65.80;;;;;;222010;1266;22516;-51
2023/08/18 05:54:42;;;;;;;5.90;5.30;;;25.80;65.80;;;;;;221758;1270;22604;-47
2023/08/18 05:59:45;;;;;;;7.30;6.50;;;25.80;66.50;;;;;;221854;1264;22518;-51
2023/08/18 06:04:48;;;;;;;8.00;6.60;;;25.80;66.50;;;;;;221940;1265;22514;-51
2023/08/18 06:09:50;;;;;;;6.80;6.10;;;25.70;66.60;;;;;;221769;1265;22527;-49
2023/08/18 06:14:53;;;;;;;6.90;5.70;;;25.70;66.80;;;;;;221871;1266;24055;-51
2023/08/18 06:19:56;;;;;;;7.20;5.40;;;25.80;66.40;;;;;;221936;1269;22522;-48
2023/08/18 06:24:59;;;;;;;6.60;6.10;;;25.80;66.80;;;;;;222178;1269;22676;-52
2023/08/18 06:30:02;;;;;;;6.30;5.80;;;25.80;66.50;;;;;;221610;1269;25520;-50
2023/08/18 06:35:05;;;;;;;6.80;6.20;;;25.70;66.70;;;;;;221736;1267;25385;-47
2023/08/18 06:40:09;;;;;;;7.40;5.90;;;25.80;66.40;;;;;;221800;1264;22529;-50
2023/08/18 06:45:11;;;;;;;6.40;5.90;;;25.80;66.70;;;;;;221814;1259;24234;-48
2023/08/18 06:50:14;;;;;;;6.10;5.60;;;25.80;66.20;;;;;;221682;1263;24162;-48
2023/08/18 06:55:17;;;;;;;6.70;6.10;;;26.00;66.20;;;;;;221535;1250;23019;-48
2023/08/18 07:00:31;;;;;;;6.50;5.60;;;25.90;66.50;;;;;;221534;1268;22606;-51
2023/08/18 07:05:34;;;;;;;7.30;5.60;;;25.90;66.40;;;;;;221840;1268;24307;-50
2023/08/18 07:10:36;;;;;;;8.20;5.60;;;25.90;66.50;;;;;;221432;1268;25363;-48
2023/08/18 07:15:40;;;;;;;6.80;6.20;;;26.00;66.20;;;;;;221794;1271;22922;-48
2023/08/18 07:20:43;;;;;;;6.10;5.60;;;25.90;66.80;;;;;;222130;1266;22569;-48
2023/08/18 07:25:46;;;;;;;6.00;5.30;;;26.00;66.50;;;;;;221742;1268;24176;-49
2023/08/18 07:30:49;;;;;;;6.10;5.60;;;26.00;66.70;;;;;;221925;1268;22648;-50
2023/08/18 07:35:52;;;;;;;6.80;6.00;;;26.10;66.40;;;;;;221847;1268;22663;-48
2023/08/18 07:40:54;;;;;;;7.10;6.10;;;26.10;67.10;;;;;;221642;1271;22544;-50
2023/08/18 07:45:57;;;;;;;7.00;6.30;;;26.10;67.10;;;;;;221519;1270;22516;-49
2023/08/18 07:51:00;;;;;;;6.60;6.10;;;26.10;67.30;;;;;;221676;1271;25340;-50
2023/08/18 07:56:04;;;;;;;8.40;6.50;;;26.00;67.40;;;;;;221884;1267;22518;-50
2023/08/18 08:01:07;;;;;;;7.70;6.60;;;25.90;67.80;;;;;;221826;1263;22593;-47
2023/08/18 08:06:10;;;;;;;7.70;6.60;;;25.80;68.40;;;;;;222014;1263;22555;-48
2023/08/18 08:11:14;;;;;;;8.80;6.70;;;25.70;68.80;;;;;;221813;1264;22531;-52
2023/08/18 08:16:17;;;;;;;6.70;6.10;;;25.80;69.40;;;;;;221757;1271;24130;-52
2023/08/18 08:21:20;;;;;;;7.70;7.00;;;25.80;69.50;;;;;;221266;1268;22514;-51
2023/08/18 08:26:26;;;;;;;7.10;6.40;;;25.80;70.20;;;;;;221423;1263;25297;-52
2023/08/18 08:31:29;;;;;;;7.70;7.10;;;25.80;70.60;;;;;;221448;1268;22537;-52
2023/08/18 08:36:34;;;;;;;8.20;7.50;;;25.70;70.90;;;;;;221523;1265;23777;-52
2023/08/18 08:41:37;;;;;;;7.90;7.20;;;25.80;71.20;;;;;;221572;1264;22553;-54
2023/08/18 08:46:41;;;;;;;8.20;7.00;;;25.80;71.10;;;;;;221622;1268;23972;-52
2023/08/18 08:51:46;;;;;;;8.90;6.90;;;26.00;70.30;;;;;;221710;1264;25310;-52
2023/08/18 08:56:50;;;;;;;8.60;7.80;;;26.00;69.90;;;;;;221758;1255;24055;-53
2023/08/18 09:01:53;;;;;;;9.70;7.50;;;26.00;69.90;;;;;;221512;1255;22535;-54
2023/08/18 09:06:57;;;;;;;11.60;7.70;;;26.30;71.00;;;;;;221755;1270;24360;-59
2023/08/18 09:12:05;;;;;;;8.90;7.90;;;26.40;69.90;;;;;;221756;1261;25346;-51
2023/08/18 09:17:08;;;;;;;9.80;7.30;;;26.40;69.80;;;;;;221700;1267;22516;-55
2023/08/18 09:22:11;;;;;;;8.60;7.20;;;26.40;69.20;;;;;;221565;1266;22507;-56
2023/08/18 09:27:14;;;;;;;9.70;7.40;;;26.50;69.40;;;;;;221801;1263;23534;-56
2023/08/18 09:32:17;;;;;;;11.50;7.30;;;26.50;69.40;;;;;;221807;1269;22527;-57
2023/08/18 09:37:19;;;;;;;7.50;6.90;;;26.70;69.70;;;;;;221801;1264;22642;-58
2023/08/18 09:42:25;;;;;;;7.60;7.00;;;26.80;68.70;;;;;;221703;1268;24235;-54
2023/08/18 09:47:30;;;;;;;8.50;6.80;;;26.90;68.40;;;;;;221948;1265;23136;-55
2023/08/18 09:52:34;;;;;;;7.70;7.00;;;27.00;68.00;;;;;;222134;1266;24930;-55
2023/08/18 09:57:48;;;;;;;8.40;6.70;;;27.00;67.50;;;;;;221932;1270;22636;-56
2023/08/18 10:02:55;;;;;;;8.60;7.20;;;27.10;67.60;;;;;;221597;1263;22723;-60
2023/08/18 10:07:59;;;;;;;8.00;7.30;;;27.30;66.70;;;;;;221687;1268;22553;-59
2023/08/18 10:13:03;;;;;;;7.40;6.80;;;27.40;66.40;;;;;;221901;1264;23272;-54
2023/08/18 10:18:09;;;;;;;8.10;7.40;;;27.50;66.30;;;;;;221777;1270;22539;-55
2023/08/18 10:23:12;;;;;;;7.30;6.70;;;27.50;66.60;;;;;;221659;1267;22536;-54
2023/08/18 10:28:20;;;;;;;6.70;6.10;;;27.70;65.80;;;;;;221543;1268;23956;-56
2023/08/18 10:33:35;;;;;;;6.20;5.60;;;27.60;64.30;;;;;;221672;1258;24358;-54
2023/08/18 10:38:39;;;;;;;6.40;5.80;;;27.80;63.30;;;;;;222022;1270;22518;-54
2023/08/18 10:43:47;;;;;;;9.00;6.00;;;27.90;62.50;;;;;;221889;1254;25781;-56
2023/08/18 10:48:50;;;;;;;24.70;6.80;;;27.90;62.40;;;;;;221885;1269;25116;-55
2023/08/18 10:53:53;;;;;;;8.60;6.60;;;28.00;62.60;;;;;;222133;1263;23915;-57
2023/08/18 10:59:00;;;;;;;10.00;6.30;;;28.00;62.70;;;;;;221768;1268;22524;-54
2023/08/18 11:04:03;;;;;;;9.70;6.90;;;28.20;62.60;;;;;;221696;1268;22528;-55
2023/08/18 11:09:06;;;;;;;7.30;6.20;;;28.30;62.60;;;;;;221952;1268;25285;-53
2023/08/18 11:14:12;;;;;;;8.80;7.50;;;28.20;62.70;;;;;;221470;1268;22578;-57
2023/08/18 11:19:15;;;;;;;8.60;7.80;;;28.20;63.20;;;;;;221688;1266;24859;-56
2023/08/18 11:24:18;;;;;;;8.40;7.40;;;28.30;63.20;;;;;;221490;1265;22656;-56
2023/08/18 11:29:26;;;;;;;8.10;7.30;;;28.30;63.40;;;;;;221679;1267;25815;-54
2023/08/18 11:34:29;;;;;;;8.90;8.20;;;28.50;63.60;;;;;;221442;1265;23097;-54
2023/08/18 11:39:32;;;;;;;9.00;8.10;;;28.50;63.80;;;;;;221775;1270;25374;-60
2023/08/18 11:44:35;;;;;;;8.00;7.50;;;28.40;63.80;;;;;;221331;1264;23918;-58
2023/08/18 11:49:38;;;;;;;8.60;7.90;;;28.40;63.80;;;;;;221850;1264;22572;-51
2023/08/18 11:54:42;;;;;;;8.20;7.60;;;28.60;63.50;;;;;;221364;1269;24350;-53
2023/08/18 11:59:46;;;;;;;9.20;8.40;;;28.70;63.30;;;;;;221571;1265;22533;-51
2023/08/18 12:04:51;;;;;;;8.90;8.20;;;28.70;63.30;;;;;;221748;1264;23901;-52
2023/08/18 12:09:54;;;;;;;9.30;8.20;;;28.70;63.70;;;;;;221770;1270;22909;-65
2023/08/18 12:14:57;;;;;;;8.60;7.80;;;28.70;63.80;;;;;;221633;1269;23903;-61
2023/08/18 12:19:59;;;;;;;8.70;8.10;;;28.70;63.90;;;;;;221533;1269;25337;-58
2023/08/18 12:25:05;;;;;;;9.40;8.50;;;28.70;64.30;;;;;;221593;1270;24363;-60
2023/08/18 12:30:08;;;;;;;8.80;8.10;;;28.80;64.90;;;;;;222007;1270;22517;-59
2023/08/18 12:35:11;;;;;;;9.80;8.90;;;28.70;65.00;;;;;;221676;1265;23247;-61
2023/08/18 12:40:14;;;;;;;9.30;8.50;;;28.60;65.50;;;;;;221836;1255;25558;-59
2023/08/18 12:45:17;;;;;;;8.90;8.20;;;28.50;65.40;;;;;;221661;1271;24211;-60
2023/08/18 12:50:20;;;;;;;9.10;8.10;;;28.50;65.20;;;;;;221890;1269;26667;-58
2023/08/18 12:55:23;;;;;;;8.90;8.20;;;28.40;65.00;;;;;;221867;1269;25584;-56
2023/08/18 13:00:26;;;;;;;8.80;8.10;;;28.10;66.20;;;;;;222120;1271;22526;-57
2023/08/18 13:05:29;;;;;;;8.80;8.10;;;28.20;66.50;;;;;;222560;1268;22591;-59
2023/08/18 13:10:33;;;;;;;8.50;7.80;;;28.50;65.70;;;;;;222457;1253;24347;-58
2023/08/18 13:15:36;;;;;;;10.10;9.00;;;28.50;65.50;;;;;;222022;1262;24080;-60
2023/08/18 13:20:39;;;;;;;9.40;8.50;;;28.40;66.20;;;;;;221838;1271;22557;-63
2023/08/18 13:25:41;;;;;;;9.40;8.50;;;28.50;66.00;;;;;;221993;1258;23897;-61
2023/08/18 13:30:45;;;;;;;10.30;7.70;;;28.40;66.50;;;;;;221948;1251;22903;-60
2023/08/18 13:35:47;;;;;;;9.00;7.90;;;28.40;66.70;;;;;;221893;1271;22771;-60
2023/08/18 13:40:50;;;;;;;17.60;7.80;;;28.30;66.90;;;;;;221898;1263;23102;-57
2023/08/18 13:45:54;;;;;;;9.60;8.70;;;28.20;68.30;;;;;;222187;1263;22648;-60
2023/08/18 13:50:57;;;;;;;9.60;8.80;;;28.10;66.80;;;;;;221865;1264;23446;-62
2023/08/18 13:56:00;;;;;;;11.10;9.80;;;28.10;66.90;;;;;;221852;1264;24085;-61
2023/08/18 14:01:04;;;;;;;9.30;8.50;;;28.20;66.70;;;;;;221925;1267;24326;-58
2023/08/18 14:06:07;;;;;;;9.20;8.20;;;28.20;66.80;;;;;;221996;1264;23068;-64
2023/08/18 14:11:13;;;;;;;9.20;8.20;;;28.00;67.50;;;;;;221665;1264;22702;-59
2023/08/18 14:16:16;;;;;;;10.60;7.90;;;27.90;67.80;;;;;;222147;1266;24202;-63
2023/08/18 14:21:19;;;;;;;14.70;8.60;;;28.00;67.20;;;;;;222202;1263;25358;-64
2023/08/18 14:26:21;;;;;;;8.20;7.40;;;28.00;66.20;;;;;;221958;1257;22519;-60
2023/08/18 14:31:24;;;;;;;10.00;7.80;;;28.00;66.20;;;;;;222954;1258;23044;-52
2023/08/18 14:36:27;;;;;;;37.60;10.30;;;28.00;65.40;;;;;;221934;1267;22540;-56
2023/08/18 14:41:33;;;;;;;9.80;8.30;;;28.00;65.70;;;;;;221782;1256;24192;-54
2023/08/18 14:46:36;;;;;;;12.60;8.10;;;28.10;65.00;;;;;;223028;1258;22540;-54
2023/08/18 14:51:39;;;;;;;8.30;7.60;;;28.10;64.60;;;;;;221984;1264;22522;-57
2023/08/18 14:56:42;;;;;;;8.90;7.80;;;28.20;65.30;;;;;;221951;1267;23797;-55
2023/08/18 15:01:46;;;;;;;9.60;7.90;;;28.20;65.10;;;;;;221819;1257;22516;-56
2023/08/18 15:06:51;;;;;;;9.90;7.80;;;28.30;65.30;;;;;;221884;1264;22531;-55
2023/08/18 15:11:54;;;;;;;8.00;7.30;;;28.10;65.90;;;;;;222136;1264;23013;-54
2023/08/18 15:16:57;;;;;;;7.60;6.90;;;27.70;67.20;;;;;;221808;1267;22690;-55
2023/08/18 15:22:00;;;;;;;7.70;7.00;;;27.50;66.00;;;;;;222075;1255;22527;-56
2023/08/18 15:27:04;;;;;;;7.60;6.90;;;27.40;65.70;;;;;;221688;1257;224633;-52
2023/08/18 15:32:06;;;;;;;11.20;8.20;;;27.50;66.00;;;;;;221905;1271;24233;-54
2023/08/18 15:37:09;;;;;;;7.90;7.10;;;27.70;66.70;;;;;;221979;1270;24419;-55
2023/08/18 15:42:12;;;;;;;8.60;7.50;;;27.90;66.00;;;;;;221771;1267;22648;-55
2023/08/18 15:47:18;;;;;;;7.30;6.60;;;27.50;68.80;;;;;;222077;1269;22690;-55
2023/08/18 15:52:21;;;;;;;7.90;6.00;;;27.40;68.90;;;;;;221836;1267;23896;-54
2023/08/18 15:57:24;;;;;;;13.70;6.50;;;27.60;68.50;;;;;;222184;1255;22546;-56
2023/08/18 16:02:27;;;;;;;8.80;6.00;;;27.70;68.80;;;;;;221870;1264;22787;-53
2023/08/18 16:07:30;;;;;;;6.70;6.00;;;27.70;68.90;;;;;;221734;1267;22542;-56
2023/08/18 16:12:33;;;;;;;10.00;6.40;;;27.60;69.90;;;;;;222157;1267;22692;-55
2023/08/18 16:17:36;;;;;;;8.20;5.80;;;27.60;70.10;;;;;;222110;1257;23897;-55
2023/08/18 16:22:39;;;;;;;5.80;5.40;;;27.60;70.20;;;;;;222023;1271;24187;-53
2023/08/18 16:27:42;;;;;;;6.60;6.00;;;27.70;70.70;;;;;;222036;1264;22669;-54
2023/08/18 16:32:48;;;;;;;7.00;6.20;;;27.70;70.90;;;;;;221826;1264;22884;-55
2023/08/18 16:37:51;;;;;;;6.60;6.00;;;27.80;71.50;;;;;;221986;1266;22528;-56
2023/08/18 16:42:56;;;;;;;7.50;6.70;;;27.80;71.50;;;;;;222099;1269;22520;-51
2023/08/18 16:47:59;;;;;;;13.10;6.40;;;27.70;71.40;;;;;;222076;1256;22530;-54
2023/08/18 16:53:05;;;;;;;11.50;6.90;;;27.80;71.40;;;;;;221810;1250;22531;-54
2023/08/18 16:58:09;;;;;;;12.10;6.80;;;27.70;71.70;;;;;;221777;1255;22521;-55
2023/08/18 17:03:12;;;;;;;9.80;7.50;;;27.80;71.70;;;;;;221841;1248;22615;-57
2023/08/18 17:08:15;;;;;;;10.10;7.20;;;27.70;72.20;;;;;;222043;1255;25539;-53
2023/08/18 17:13:19;;;;;;;28.50;8.50;;;27.70;72.10;;;;;;222204;1257;22573;-54
2023/08/18 17:18:23;;;;;;;13.30;8.10;;;27.90;72.50;;;;;;221923;1256;22576;-54
2023/08/18 17:23:26;;;;;;;9.60;7.80;;;27.90;72.50;;;;;;221629;1269;22532;-54
2023/08/18 17:28:29;;;;;;;9.40;8.30;;;27.80;72.50;;;;;;221886;1258;22508;-56
2023/08/18 17:33:33;;;;;;;9.80;7.90;;;27.90;72.60;;;;;;222000;1263;22513;-53
2023/08/18 17:38:37;;;;;;;10.80;8.60;;;28.00;72.30;;;;;;222128;1267;22640;-52
2023/08/18 17:43:40;;;;;;;24.80;12.00;;;28.00;72.00;;;;;;221941;1264;22543;-56
2023/08/18 17:48:43;;;;;;;17.40;9.90;;;28.00;73.90;;;;;;221681;1264;24246;-57
2023/08/18 17:53:46;;;;;;;13.70;10.00;;;28.00;72.80;;;;;;221983;1270;22534;-56
2023/08/18 17:58:49;;;;;;;10.90;9.00;;;28.00;73.70;;;;;;221924;1260;22650;-52
2023/08/18 18:03:52;;;;;;;11.50;9.70;;;28.00;73.20;;;;;;221586;1266;22546;-55
2023/08/18 18:08:55;;;;;;;11.80;10.00;;;28.00;72.90;;;;;;221740;1270;22525;-53
2023/08/18 18:13:58;;;;;;;10.40;9.40;;;28.00;72.30;;;;;;222056;1258;23944;-54
2023/08/18 18:19:04;;;;;;;10.80;9.70;;;28.10;72.60;;;;;;224421;1269;22656;-56
2023/08/18 18:24:08;;;;;;;11.00;9.90;;;28.00;72.00;;;;;;223457;1264;22638;-56
2023/08/18 18:29:13;;;;;;;11.70;10.60;;;28.00;72.10;;;;;;226725;1257;22623;-54
2023/08/18 18:34:17;;;;;;;14.00;10.90;;;27.90;72.20;;;;;;226365;1267;22551;-52
2023/08/18 18:39:21;;;;;;;12.60;10.30;;;28.00;71.50;;;;;;225957;1255;22521;-55
2023/08/18 18:44:26;;;;;;;12.70;10.90;;;28.10;70.60;;;;;;222116;1270;25556;-55
2023/08/18 18:49:30;;;;;;;11.40;10.30;;;28.00;71.00;;;;;;221866;1263;22528;-57
2023/08/18 18:54:34;;;;;;;11.70;10.90;;;27.90;71.20;;;;;;222016;1256;25296;-55
2023/08/18 18:59:37;;;;;;;11.90;10.80;;;27.80;71.40;;;;;;222101;1264;24202;-55
2023/08/18 19:04:41;;;;;;;11.30;10.40;;;27.80;71.30;;;;;;222245;1256;22542;-55
2023/08/18 19:09:44;;;;;;;11.60;10.50;;;27.80;71.20;;;;;;222186;1264;22524;-55
2023/08/18 19:14:48;;;;;;;11.10;10.10;;;27.70;71.60;;;;;;222019;1257;22546;-57
2023/08/18 19:19:59;;;;;;;10.60;9.80;;;27.70;70.90;;;;;;222219;1258;25249;-54
2023/08/18 19:25:04;;;;;;;10.60;9.70;;;27.70;70.90;;;;;;221951;1259;25630;-57
2023/08/18 19:30:08;;;;;;;11.30;10.30;;;27.70;70.60;;;;;;222138;1255;25284;-54
2023/08/18 19:35:11;;;;;;;10.70;9.80;;;27.70;70.80;;;;;;222082;1260;24233;-55
2023/08/18 19:40:18;;;;;;;10.70;9.90;;;27.70;70.60;;;;;;222301;1268;22915;-57
2023/08/18 19:45:22;;;;;;;10.90;10.10;;;27.60;70.80;;;;;;222278;1265;24217;-56
2023/08/18 19:50:26;;;;;;;10.20;9.50;;;27.60;70.40;;;;;;222108;1264;25367;-56
2023/08/18 19:55:29;;;;;;;10.40;9.50;;;27.70;70.40;;;;;;221922;1265;24368;-56
2023/08/18 20:00:34;;;;;;;10.10;9.10;;;27.70;70.30;;;;;;221994;1255;22544;-56
2023/08/18 20:05:38;;;;;;;10.30;9.40;;;27.70;70.30;;;;;;221840;1255;24212;-56
2023/08/18 20:10:41;;;;;;;10.10;9.20;;;27.70;70.30;;;;;;222010;1255;25931;-54
2023/08/18 20:15:48;;;;;;;9.70;8.90;;;27.60;70.00;;;;;;221872;1250;24338;-56
2023/08/18 20:20:53;;;;;;;10.60;9.80;;;27.60;70.10;;;;;;222116;1256;22607;-56
2023/08/18 20:26:04;;;;;;;10.30;9.50;;;27.60;70.00;;;;;;221963;1258;22636;-56
2023/08/18 20:31:08;;;;;;;9.80;9.00;;;27.60;69.90;;;;;;221975;1255;25339;-54
2023/08/18 20:36:11;;;;;;;9.50;8.60;;;27.60;69.90;;;;;;222050;1255;22575;-56
2023/08/18 20:41:16;;;;;;;9.40;8.70;;;27.60;70.50;;;;;;222115;1265;26520;-55
2023/08/18 20:46:22;;;;;;;9.50;8.80;;;27.50;69.80;;;;;;222163;1271;22559;-55
2023/08/18 20:51:25;;;;;;;8.60;8.00;;;27.50;70.30;;;;;;222310;1267;24274;-55
2023/08/18 20:56:29;;;;;;;9.60;8.80;;;27.60;69.70;;;;;;221877;1271;25604;-54
2023/08/18 21:01:33;;;;;;;9.30;8.50;;;27.50;69.60;;;;;;222041;1264;23474;-55
2023/08/18 21:06:35;;;;;;;9.10;8.50;;;27.50;69.50;;;;;;222123;1257;22654;-55
2023/08/18 21:11:38;;;;;;;9.40;8.80;;;27.50;69.50;;;;;;221726;1266;23920;-57
2023/08/18 21:16:41;;;;;;;9.30;8.40;;;27.50;69.50;;;;;;222036;1265;22622;-56
2023/08/18 21:21:44;;;;;;;8.90;8.20;;;27.50;69.50;;;;;;222085;1255;22620;-55
2023/08/18 21:26:47;;;;;;;10.00;9.20;;;27.40;69.40;;;;;;221941;1255;23903;-58
2023/08/18 21:31:50;;;;;;;9.90;9.10;;;27.50;69.50;;;;;;221847;1255;22773;-56
2023/08/18 21:36:53;;;;;;;10.30;9.40;;;27.40;69.40;;;;;;221995;1255;23904;-58
2023/08/18 21:41:56;;;;;;;10.70;9.90;;;27.40;69.30;;;;;;222137;1256;22855;-55
2023/08/18 21:46:59;;;;;;;9.60;8.80;;;27.40;69.30;;;;;;222033;1270;24276;-56
2023/08/18 21:52:03;;;;;;;10.30;9.40;;;27.30;69.20;;;;;;221911;1255;22651;-55
2023/08/18 21:57:06;;;;;;;9.90;8.70;;;27.40;69.20;;;;;;222107;1265;25258;-55
2023/08/18 22:02:08;;;;;;;9.10;8.50;;;27.40;69.30;;;;;;221891;1259;22534;-56
2023/08/18 22:07:12;;;;;;;9.70;9.00;;;27.30;69.10;;;;;;222217;1265;22518;-54
2023/08/18 22:12:15;;;;;;;10.40;9.30;;;27.30;69.10;;;;;;222002;1255;22761;-56
2023/08/18 22:17:18;;;;;;;9.50;8.60;;;27.30;69.00;;;;;;222051;1255;22544;-57
2023/08/18 22:22:21;;;;;;;9.60;8.70;;;27.30;68.90;;;;;;221952;1267;24192;-57
2023/08/18 22:27:36;;;;;;;10.20;9.30;;;27.30;68.70;;;;;;221861;1255;22560;-54
2023/08/18 22:32:39;;;;;;;9.60;8.80;;;27.20;68.70;;;;;;221900;1271;23916;-56
2023/08/18 22:37:42;;;;;;;9.50;8.80;;;27.20;68.60;;;;;;221798;1271;25584;-56
2023/08/18 22:42:47;;;;;;;9.40;8.70;;;27.20;68.60;;;;;;222121;1265;22640;-54
2023/08/18 22:47:49;;;;;;;9.90;8.90;;;27.20;69.00;;;;;;221884;1264;22591;-56
2023/08/18 22:52:52;;;;;;;9.60;8.80;;;27.20;69.10;;;;;;221774;1259;23896;-55
2023/08/18 22:57:55;;;;;;;9.60;8.80;;;27.20;68.70;;;;;;221804;1256;25085;-55
2023/08/18 23:02:59;;;;;;;9.60;8.90;;;27.20;68.70;;;;;;222021;1259;22543;-55
2023/08/18 23:08:05;;;;;;;9.20;8.60;;;27.20;68.70;;;;;;221926;1268;24207;-55
2023/08/18 23:13:08;;;;;;;9.80;8.90;;;27.20;68.70;;;;;;221925;1259;22577;-49
2023/08/18 23:18:13;;;;;;;9.40;8.70;;;27.10;69.00;;;;;;222022;1257;25495;-48
2023/08/18 23:23:16;;;;;;;10.10;9.40;;;27.10;68.70;;;;;;222108;1267;22540;-48
2023/08/18 23:28:19;;;;;;;10.30;9.40;;;27.10;68.50;;;;;;221851;1255;22982;-48
2023/08/18 23:33:25;;;;;;;9.40;8.70;;;27.10;68.50;;;;;;222048;1259;22524;-49
2023/08/18 23:38:32;;;;;;;9.00;8.30;;;27.10;68.20;;;;;;221726;1263;25329;-48
2023/08/18 23:43:35;;;;;;;8.60;7.90;;;27.10;68.10;;;;;;222139;1256;22530;-52
2023/08/18 23:48:49;;;;;;;8.50;7.80;;;27.10;68.40;;;;;;221943;1263;22535;-48
2023/08/18 23:53:52;;;;;;;8.90;8.30;;;27.10;68.00;;;;;;221924;1255;22526;-48
2023/08/18 23:58:55;;;;;;;8.60;7.90;;;27.10;68.30;;;;;;221925;1256;24359;-48
